sensor_id;sensor_type;location;lat;lon;timestamp;pressure;altitude;pressure_sealevel;temperature;humidity
7748;BME280;3918;42.564;23.164;2023-02-08T00:02:24;-11650.84;;;-142.29;100.00
7748;BME280;3918;42.564;23.164;2023-02-08T00:04:51;-11650.84;;;-142.29;100.00
7748;BME280;3918;42.564;23.164;2023-02-08T00:07:18;-11650.84;;;-142.29;100.00
7748;BME280;3918;42.564;23.164;2023-02-08T00:09:46;-11650.84;;;-142.29;100.00
7748;BME280;3918;42.564;23.164;2023-02-08T00:12:13;-11650.84;;;-142.29;100.00
7748;BME280;3918;42.564;23.164;2023-02-08T00:14:40;-11650.84;;;-142.29;100.00
7748;BME280;3918;42.564;23.164;2023-02-08T00:17:07;-11650.84;;;-142.29;100.00
7748;BME280;3918;42.564;23.164;2023-02-08T00:19:34;-11650.84;;;-142.29;100.00
7748;BME280;3918;42.564;23.164;2023-02-08T00:22:00;-11650.84;;;-142.29;100.00
7748;BME280;3918;42.564;23.164;2023-02-08T00:24:27;-11650.84;;;-142.29;100.00
7748;BME280;3918;42.564;23.164;2023-02-08T00:26:55;-11650.84;;;-142.29;100.00
7748;BME280;3918;42.564;23.164;2023-02-08T00:29:22;-11650.84;;;-142.29;100.00
7748;BME280;3918;42.564;23.164;2023-02-08T00:31:49;-11650.84;;;-142.29;100.00
7748;BME280;3918;42.564;23.164;2023-02-08T00:34:15;-11650.84;;;-142.29;100.00
7748;BME280;3918;42.564;23.164;2023-02-08T00:36:42;-11650.84;;;-142.29;100.00
7748;BME280;3918;42.564;23.164;2023-02-08T00:39:09;-11650.84;;;-142.29;100.00
7748;BME280;3918;42.564;23.164;2023-02-08T00:41:35;-11650.84;;;-142.29;100.00
7748;BME280;3918;42.564;23.164;2023-02-08T00:44:04;-11650.84;;;-142.29;100.00
7748;BME280;3918;42.564;23.164;2023-02-08T00:46:30;-11650.84;;;-142.29;100.00
7748;BME280;3918;42.564;23.164;2023-02-08T00:48:57;-11650.84;;;-142.29;100.00
7748;BME280;3918;42.564;23.164;2023-02-08T00:51:24;-11650.84;;;-142.29;100.00
7748;BME280;3918;42.564;23.164;2023-02-08T00:53:51;-11650.84;;;-142.29;100.00
7748;BME280;3918;42.564;23.164;2023-02-08T00:56:17;-11650.84;;;-142.29;100.00
7748;BME280;3918;42.564;23.164;2023-02-08T00:58:45;-11650.84;;;-142.29;100.00
7748;BME280;3918;42.564;23.164;2023-02-08T01:01:13;-11650.84;;;-142.29;100.00
7748;BME280;3918;42.564;23.164;2023-02-08T01:03:41;-11650.84;;;-142.29;100.00
7748;BME280;3918;42.564;23.164;2023-02-08T01:06:10;-11650.84;;;-142.29;100.00
7748;BME280;3918;42.564;23.164;2023-02-08T01:08:38;-11650.84;;;-142.29;100.00
7748;BME280;3918;42.564;23.164;2023-02-08T01:11:07;-11650.84;;;-142.29;100.00
7748;BME280;3918;42.564;23.164;2023-02-08T01:13:35;-11650.84;;;-142.29;100.00
7748;BME280;3918;42.564;23.164;2023-02-08T01:16:07;-11650.84;;;-142.29;100.00
7748;BME280;3918;42.564;23.164;2023-02-08T01:18:36;-11650.84;;;-142.29;100.00
7748;BME280;3918;42.564;23.164;2023-02-08T01:21:05;-11650.84;;;-142.29;100.00
7748;BME280;3918;42.564;23.164;2023-02-08T01:23:31;-11650.84;;;-142.29;100.00
7748;BME280;3918;42.564;23.164;2023-02-08T01:25:58;-11650.84;;;-142.29;100.00
7748;BME280;3918;42.564;23.164;2023-02-08T01:28:25;-11650.84;;;-142.29;100.00
7748;BME280;3918;42.564;23.164;2023-02-08T01:30:52;-11650.84;;;-142.29;100.00
7748;BME280;3918;42.564;23.164;2023-02-08T01:33:18;-11650.84;;;-142.29;100.00
7748;BME280;3918;42.564;23.164;2023-02-08T01:35:48;-11650.84;;;-142.29;100.00
7748;BME280;3918;42.564;23.164;2023-02-08T01:38:15;-11650.84;;;-142.29;100.00
7748;BME280;3918;42.564;23.164;2023-02-08T01:40:42;-11650.84;;;-142.29;100.00
7748;BME280;3918;42.564;23.164;2023-02-08T01:43:18;-11650.84;;;-142.29;100.00
7748;BME280;3918;42.564;23.164;2023-02-08T01:45:45;-11650.84;;;-142.29;100.00
7748;BME280;3918;42.564;23.164;2023-02-08T01:48:16;-11650.84;;;-142.29;100.00
7748;BME280;3918;42.564;23.164;2023-02-08T01:50:49;-11650.84;;;-142.29;100.00
7748;BME280;3918;42.564;23.164;2023-02-08T01:53:18;-11650.84;;;-142.29;100.00
7748;BME280;3918;42.564;23.164;2023-02-08T01:55:47;-11650.84;;;-142.29;100.00
7748;BME280;3918;42.564;23.164;2023-02-08T01:58:16;-11650.84;;;-142.29;100.00
7748;BME280;3918;42.564;23.164;2023-02-08T02:00:44;-11650.84;;;-142.29;100.00
7748;BME280;3918;42.564;23.164;2023-02-08T02:03:12;-11650.84;;;-142.29;100.00
7748;BME280;3918;42.564;23.164;2023-02-08T02:05:40;-11650.84;;;-142.29;100.00
7748;BME280;3918;42.564;23.164;2023-02-08T02:08:10;-11650.84;;;-142.29;100.00
7748;BME280;3918;42.564;23.164;2023-02-08T02:10:39;-11650.84;;;-142.29;100.00
7748;BME280;3918;42.564;23.164;2023-02-08T02:13:09;-11650.84;;;-142.29;100.00
7748;BME280;3918;42.564;23.164;2023-02-08T02:15:36;-11650.84;;;-142.29;100.00
7748;BME280;3918;42.564;23.164;2023-02-08T02:18:05;-11650.84;;;-142.29;100.00
7748;BME280;3918;42.564;23.164;2023-02-08T02:20:41;-11650.84;;;-142.29;100.00
7748;BME280;3918;42.564;23.164;2023-02-08T02:23:29;-11650.84;;;-142.29;100.00
7748;BME280;3918;42.564;23.164;2023-02-08T02:26:23;-11650.84;;;-142.29;100.00
7748;BME280;3918;42.564;23.164;2023-02-08T02:32:17;-11650.84;;;-142.29;100.00
7748;BME280;3918;42.564;23.164;2023-02-08T02:34:51;-11650.84;;;-142.29;100.00
7748;BME280;3918;42.564;23.164;2023-02-08T02:37:35;-11650.84;;;-142.29;100.00
7748;BME280;3918;42.564;23.164;2023-02-08T02:40:10;-11650.84;;;-142.29;100.00
7748;BME280;3918;42.564;23.164;2023-02-08T02:42:51;-11650.84;;;-142.29;100.00
7748;BME280;3918;42.564;23.164;2023-02-08T02:45:45;-11650.84;;;-142.29;100.00
7748;BME280;3918;42.564;23.164;2023-02-08T02:48:21;-11650.84;;;-142.29;100.00
7748;BME280;3918;42.564;23.164;2023-02-08T02:50:52;-11650.84;;;-142.29;100.00
7748;BME280;3918;42.564;23.164;2023-02-08T02:53:28;-11650.84;;;-142.29;100.00
7748;BME280;3918;42.564;23.164;2023-02-08T02:56:01;-11650.84;;;-142.29;100.00
7748;BME280;3918;42.564;23.164;2023-02-08T02:58:30;-11650.84;;;-142.29;100.00
7748;BME280;3918;42.564;23.164;2023-02-08T03:00:58;-11650.84;;;-142.29;100.00
7748;BME280;3918;42.564;23.164;2023-02-08T03:03:30;-11650.84;;;-142.29;100.00
7748;BME280;3918;42.564;23.164;2023-02-08T03:06:02;-11650.84;;;-142.29;100.00
7748;BME280;3918;42.564;23.164;2023-02-08T03:09:00;-11650.84;;;-142.29;100.00
7748;BME280;3918;42.564;23.164;2023-02-08T03:11:32;-11650.84;;;-142.29;100.00
7748;BME280;3918;42.564;23.164;2023-02-08T03:14:13;-11650.84;;;-142.29;100.00
7748;BME280;3918;42.564;23.164;2023-02-08T03:16:59;-11650.84;;;-142.29;100.00
7748;BME280;3918;42.564;23.164;2023-02-08T03:19:34;-11650.84;;;-142.29;100.00
7748;BME280;3918;42.564;23.164;2023-02-08T03:22:11;-11650.84;;;-142.29;100.00
7748;BME280;3918;42.564;23.164;2023-02-08T03:24:46;-11650.84;;;-142.29;100.00
7748;BME280;3918;42.564;23.164;2023-02-08T03:27:21;-11650.84;;;-142.29;100.00
7748;BME280;3918;42.564;23.164;2023-02-08T03:29:58;-11650.84;;;-142.29;100.00
7748;BME280;3918;42.564;23.164;2023-02-08T03:32:33;-11650.84;;;-142.29;100.00
7748;BME280;3918;42.564;23.164;2023-02-08T03:35:04;-11650.84;;;-142.29;100.00
7748;BME280;3918;42.564;23.164;2023-02-08T03:37:37;-11650.84;;;-142.29;100.00
7748;BME280;3918;42.564;23.164;2023-02-08T03:40:13;-11650.84;;;-142.29;100.00
7748;BME280;3918;42.564;23.164;2023-02-08T03:42:41;-11650.84;;;-142.29;100.00
7748;BME280;3918;42.564;23.164;2023-02-08T03:45:14;-11650.84;;;-142.29;100.00
7748;BME280;3918;42.564;23.164;2023-02-08T03:47:43;-11650.84;;;-142.29;100.00
7748;BME280;3918;42.564;23.164;2023-02-08T03:50:14;-11650.84;;;-142.29;100.00
7748;BME280;3918;42.564;23.164;2023-02-08T03:52:43;-11650.84;;;-142.29;100.00
7748;BME280;3918;42.564;23.164;2023-02-08T03:55:14;-11650.84;;;-142.29;100.00
7748;BME280;3918;42.564;23.164;2023-02-08T03:57:45;-11650.84;;;-142.29;100.00
7748;BME280;3918;42.564;23.164;2023-02-08T04:00:15;-11650.84;;;-142.29;100.00
7748;BME280;3918;42.564;23.164;2023-02-08T04:02:47;-11650.84;;;-142.29;100.00
7748;BME280;3918;42.564;23.164;2023-02-08T04:05:19;-11650.84;;;-142.29;100.00
7748;BME280;3918;42.564;23.164;2023-02-08T04:07:47;-11650.84;;;-142.29;100.00
7748;BME280;3918;42.564;23.164;2023-02-08T04:10:13;-11650.84;;;-142.29;100.00
7748;BME280;3918;42.564;23.164;2023-02-08T04:12:41;-11650.84;;;-142.29;100.00
7748;BME280;3918;42.564;23.164;2023-02-08T04:15:08;-11650.84;;;-142.29;100.00
7748;BME280;3918;42.564;23.164;2023-02-08T04:17:35;-11650.84;;;-142.29;100.00
7748;BME280;3918;42.564;23.164;2023-02-08T04:20:02;-11650.84;;;-142.29;100.00
7748;BME280;3918;42.564;23.164;2023-02-08T04:22:30;-11650.84;;;-142.29;100.00
7748;BME280;3918;42.564;23.164;2023-02-08T04:24:58;-11650.84;;;-142.29;100.00
7748;BME280;3918;42.564;23.164;2023-02-08T04:27:25;-11650.84;;;-142.29;100.00
7748;BME280;3918;42.564;23.164;2023-02-08T04:29:51;-11650.84;;;-142.29;100.00
7748;BME280;3918;42.564;23.164;2023-02-08T04:32:18;-11650.84;;;-142.29;100.00
7748;BME280;3918;42.564;23.164;2023-02-08T04:34:45;-11650.84;;;-142.29;100.00
7748;BME280;3918;42.564;23.164;2023-02-08T04:37:12;-11650.84;;;-142.29;100.00
7748;BME280;3918;42.564;23.164;2023-02-08T04:39:40;-11650.84;;;-142.29;100.00
7748;BME280;3918;42.564;23.164;2023-02-08T04:42:07;-11650.84;;;-142.29;100.00
7748;BME280;3918;42.564;23.164;2023-02-08T04:44:34;-11650.84;;;-142.29;100.00
7748;BME280;3918;42.564;23.164;2023-02-08T04:47:00;-11650.84;;;-142.29;100.00
7748;BME280;3918;42.564;23.164;2023-02-08T04:49:27;-11650.84;;;-142.29;100.00
7748;BME280;3918;42.564;23.164;2023-02-08T04:51:54;-11650.84;;;-142.29;100.00
7748;BME280;3918;42.564;23.164;2023-02-08T04:54:21;-11650.84;;;-142.29;100.00
7748;BME280;3918;42.564;23.164;2023-02-08T04:56:49;-11650.84;;;-142.29;100.00
7748;BME280;3918;42.564;23.164;2023-02-08T04:59:15;-11650.84;;;-142.29;100.00
7748;BME280;3918;42.564;23.164;2023-02-08T05:01:42;-11650.84;;;-142.29;100.00
7748;BME280;3918;42.564;23.164;2023-02-08T05:04:09;-11650.84;;;-142.29;100.00
7748;BME280;3918;42.564;23.164;2023-02-08T05:06:36;-11650.84;;;-142.29;100.00
7748;BME280;3918;42.564;23.164;2023-02-08T05:09:05;-11650.84;;;-142.29;100.00
7748;BME280;3918;42.564;23.164;2023-02-08T05:11:32;-11650.84;;;-142.29;100.00
7748;BME280;3918;42.564;23.164;2023-02-08T05:14:01;-11650.84;;;-142.29;100.00
7748;BME280;3918;42.564;23.164;2023-02-08T05:16:27;-11650.84;;;-142.29;100.00
7748;BME280;3918;42.564;23.164;2023-02-08T05:18:54;-11650.84;;;-142.29;100.00
7748;BME280;3918;42.564;23.164;2023-02-08T05:21:21;-11650.84;;;-142.29;100.00
7748;BME280;3918;42.564;23.164;2023-02-08T05:23:49;-11650.84;;;-142.29;100.00
7748;BME280;3918;42.564;23.164;2023-02-08T05:26:16;-11650.84;;;-142.29;100.00
7748;BME280;3918;42.564;23.164;2023-02-08T05:28:43;-11650.84;;;-142.29;100.00
7748;BME280;3918;42.564;23.164;2023-02-08T05:31:13;-11650.84;;;-142.29;100.00
7748;BME280;3918;42.564;23.164;2023-02-08T05:33:40;-11650.84;;;-142.29;100.00
7748;BME280;3918;42.564;23.164;2023-02-08T05:36:07;-11650.84;;;-142.29;100.00
7748;BME280;3918;42.564;23.164;2023-02-08T05:38:34;-11650.84;;;-142.29;100.00
7748;BME280;3918;42.564;23.164;2023-02-08T05:41:01;-11650.84;;;-142.29;100.00
7748;BME280;3918;42.564;23.164;2023-02-08T05:43:28;-11650.84;;;-142.29;100.00
7748;BME280;3918;42.564;23.164;2023-02-08T05:45:54;-11650.84;;;-142.29;100.00
7748;BME280;3918;42.564;23.164;2023-02-08T05:48:22;-11650.84;;;-142.29;100.00
7748;BME280;3918;42.564;23.164;2023-02-08T05:50:49;-11650.84;;;-142.29;100.00
7748;BME280;3918;42.564;23.164;2023-02-08T05:53:16;-11650.84;;;-142.29;100.00
7748;BME280;3918;42.564;23.164;2023-02-08T05:55:43;-11650.84;;;-142.29;100.00
7748;BME280;3918;42.564;23.164;2023-02-08T05:58:11;-11650.84;;;-142.29;100.00
7748;BME280;3918;42.564;23.164;2023-02-08T06:00:38;-11650.84;;;-142.29;100.00
7748;BME280;3918;42.564;23.164;2023-02-08T06:03:04;-11650.84;;;-142.29;100.00
7748;BME280;3918;42.564;23.164;2023-02-08T06:05:35;-11650.84;;;-142.29;100.00
7748;BME280;3918;42.564;23.164;2023-02-08T06:08:02;-11650.84;;;-142.29;100.00
7748;BME280;3918;42.564;23.164;2023-02-08T06:10:29;-11650.84;;;-142.29;100.00
7748;BME280;3918;42.564;23.164;2023-02-08T06:12:56;-11650.84;;;-142.29;100.00
7748;BME280;3918;42.564;23.164;2023-02-08T06:15:23;-11650.84;;;-142.29;100.00
7748;BME280;3918;42.564;23.164;2023-02-08T06:17:50;-11650.84;;;-142.29;100.00
7748;BME280;3918;42.564;23.164;2023-02-08T06:20:17;-11650.84;;;-142.29;100.00
7748;BME280;3918;42.564;23.164;2023-02-08T06:22:45;-11650.84;;;-142.29;100.00
7748;BME280;3918;42.564;23.164;2023-02-08T06:25:12;-11650.84;;;-142.29;100.00
7748;BME280;3918;42.564;23.164;2023-02-08T06:27:38;-11650.84;;;-142.29;69.99
7748;BME280;3918;42.564;23.164;2023-02-08T06:30:06;-11650.84;;;-142.29;59.82
7748;BME280;3918;42.564;23.164;2023-02-08T06:32:32;-11650.84;;;-142.29;56.19
7748;BME280;3918;42.564;23.164;2023-02-08T06:34:59;-11650.84;;;-142.29;53.95
7748;BME280;3918;42.564;23.164;2023-02-08T06:37:26;-11650.84;;;-142.29;55.66
7748;BME280;3918;42.564;23.164;2023-02-08T06:39:54;-11650.84;;;-142.29;56.38
7748;BME280;3918;42.564;23.164;2023-02-08T06:42:21;-11650.84;;;-142.29;57.79
7748;BME280;3918;42.564;23.164;2023-02-08T06:44:47;-11650.84;;;-142.29;61.27
7748;BME280;3918;42.564;23.164;2023-02-08T06:47:14;-11650.84;;;-142.29;65.63
7748;BME280;3918;42.564;23.164;2023-02-08T06:49:41;-11650.84;;;-142.29;71.97
7748;BME280;3918;42.564;23.164;2023-02-08T06:52:08;-11650.84;;;-142.29;78.15
7748;BME280;3918;42.564;23.164;2023-02-08T06:54:35;-11650.84;;;-142.29;87.55
7748;BME280;3918;42.564;23.164;2023-02-08T06:57:03;-11650.84;;;-142.29;97.59
7748;BME280;3918;42.564;23.164;2023-02-08T06:59:30;-11650.84;;;-142.29;100.00
7748;BME280;3918;42.564;23.164;2023-02-08T07:01:57;-11650.84;;;-142.29;94.20
7748;BME280;3918;42.564;23.164;2023-02-08T07:04:24;-11650.84;;;-142.29;78.32
7748;BME280;3918;42.564;23.164;2023-02-08T07:06:50;-11650.84;;;-142.29;72.94
7748;BME280;3918;42.564;23.164;2023-02-08T07:09:17;-11650.84;;;-142.29;58.50
7748;BME280;3918;42.564;23.164;2023-02-08T07:11:44;-11650.84;;;-142.29;52.21
7748;BME280;3918;42.564;23.164;2023-02-08T07:14:13;-11650.84;;;-142.29;52.18
7748;BME280;3918;42.564;23.164;2023-02-08T07:16:41;-11650.84;;;-142.29;52.87
7748;BME280;3918;42.564;23.164;2023-02-08T07:19:07;-11650.84;;;-142.29;53.67
7748;BME280;3918;42.564;23.164;2023-02-08T07:21:34;-11650.84;;;-142.29;47.32
7748;BME280;3918;42.564;23.164;2023-02-08T07:24:01;-11650.84;;;-142.29;44.57
7748;BME280;3918;42.564;23.164;2023-02-08T07:26:27;-11650.84;;;-142.29;39.16
7748;BME280;3918;42.564;23.164;2023-02-08T07:28:54;-11650.84;;;-142.29;36.05
7748;BME280;3918;42.564;23.164;2023-02-08T07:31:22;-11650.84;;;-142.29;35.26
7748;BME280;3918;42.564;23.164;2023-02-08T07:33:49;-11650.84;;;-142.29;36.10
7748;BME280;3918;42.564;23.164;2023-02-08T07:36:16;-11650.84;;;-142.29;38.85
7748;BME280;3918;42.564;23.164;2023-02-08T07:38:42;-11650.84;;;-142.29;38.66
7748;BME280;3918;42.564;23.164;2023-02-08T07:41:11;-11650.84;;;-142.29;42.29
7748;BME280;3918;42.564;23.164;2023-02-08T07:43:39;-11650.84;;;-142.29;45.46
7748;BME280;3918;42.564;23.164;2023-02-08T07:46:07;-11650.84;;;-142.29;42.63
7748;BME280;3918;42.564;23.164;2023-02-08T07:48:36;-11650.84;;;-142.29;40.72
7748;BME280;3918;42.564;23.164;2023-02-08T07:51:03;-11650.84;;;-142.29;38.85
7748;BME280;3918;42.564;23.164;2023-02-08T07:53:30;-11650.84;;;-142.29;35.23
7748;BME280;3918;42.564;23.164;2023-02-08T07:55:57;-11650.84;;;-142.29;36.34
7748;BME280;3918;42.564;23.164;2023-02-08T07:58:25;-11650.84;;;-142.29;35.28
7748;BME280;3918;42.564;23.164;2023-02-08T08:00:52;-11650.84;;;-142.29;33.90
7748;BME280;3918;42.564;23.164;2023-02-08T08:03:19;-11650.84;;;-142.29;32.70
7748;BME280;3918;42.564;23.164;2023-02-08T08:05:48;-11650.84;;;-142.29;33.05
7748;BME280;3918;42.564;23.164;2023-02-08T08:08:15;-11650.84;;;-142.29;33.21
7748;BME280;3918;42.564;23.164;2023-02-08T08:10:42;-11650.84;;;-142.29;32.78
7748;BME280;3918;42.564;23.164;2023-02-08T08:13:09;-11650.84;;;-142.29;32.27
7748;BME280;3918;42.564;23.164;2023-02-08T08:15:36;-11650.84;;;-142.29;32.62
7748;BME280;3918;42.564;23.164;2023-02-08T08:18:03;-11650.84;;;-142.29;32.10
7748;BME280;3918;42.564;23.164;2023-02-08T08:20:29;-11650.84;;;-142.29;31.03
7748;BME280;3918;42.564;23.164;2023-02-08T08:22:57;-11650.84;;;-142.29;31.53
7748;BME280;3918;42.564;23.164;2023-02-08T08:25:24;-11650.84;;;-142.29;32.10
7748;BME280;3918;42.564;23.164;2023-02-08T08:27:51;-11650.84;;;-142.29;32.64
7748;BME280;3918;42.564;23.164;2023-02-08T08:30:19;-11650.84;;;-142.29;35.40
7748;BME280;3918;42.564;23.164;2023-02-08T08:32:46;-11650.84;;;-142.29;37.95
7748;BME280;3918;42.564;23.164;2023-02-08T08:35:13;-11650.84;;;-142.29;37.52
7748;BME280;3918;42.564;23.164;2023-02-08T08:37:39;-11650.84;;;-142.29;35.85
7748;BME280;3918;42.564;23.164;2023-02-08T08:40:09;-11650.84;;;-142.29;34.52
7748;BME280;3918;42.564;23.164;2023-02-08T08:42:36;-11650.84;;;-142.29;32.02
7748;BME280;3918;42.564;23.164;2023-02-08T08:45:04;-11650.84;;;-142.29;31.54
7748;BME280;3918;42.564;23.164;2023-02-08T08:47:31;-11650.84;;;-142.29;30.94
7748;BME280;3918;42.564;23.164;2023-02-08T08:49:58;-11650.84;;;-142.29;31.31
7748;BME280;3918;42.564;23.164;2023-02-08T08:52:25;-11650.84;;;-142.29;30.72
7748;BME280;3918;42.564;23.164;2023-02-08T08:54:52;-11650.84;;;-142.29;30.64
7748;BME280;3918;42.564;23.164;2023-02-08T08:57:20;-11650.84;;;-142.29;30.12
7748;BME280;3918;42.564;23.164;2023-02-08T08:59:47;-11650.84;;;-142.29;30.33
7748;BME280;3918;42.564;23.164;2023-02-08T09:02:14;-11650.84;;;-142.29;30.60
7748;BME280;3918;42.564;23.164;2023-02-08T09:04:40;-11650.84;;;-142.29;31.37
7748;BME280;3918;42.564;23.164;2023-02-08T09:07:08;-11650.84;;;-142.29;32.30
7748;BME280;3918;42.564;23.164;2023-02-08T09:09:35;-11650.84;;;-142.29;33.73
7748;BME280;3918;42.564;23.164;2023-02-08T09:12:03;-11650.84;;;-142.29;34.75
7748;BME280;3918;42.564;23.164;2023-02-08T09:14:31;-11650.84;;;-142.29;35.62
7748;BME280;3918;42.564;23.164;2023-02-08T09:16:58;-11650.84;;;-142.29;36.76
7748;BME280;3918;42.564;23.164;2023-02-08T09:19:25;-11650.84;;;-142.29;38.45
7748;BME280;3918;42.564;23.164;2023-02-08T09:21:53;-11650.84;;;-142.29;38.13
7748;BME280;3918;42.564;23.164;2023-02-08T09:24:22;-11650.84;;;-142.29;38.81
7748;BME280;3918;42.564;23.164;2023-02-08T09:26:49;-11650.84;;;-142.29;41.28
7748;BME280;3918;42.564;23.164;2023-02-08T09:29:16;-11650.84;;;-142.29;42.10
7748;BME280;3918;42.564;23.164;2023-02-08T09:31:44;-11650.84;;;-142.29;43.38
7748;BME280;3918;42.564;23.164;2023-02-08T09:34:10;-11650.84;;;-142.29;44.75
7748;BME280;3918;42.564;23.164;2023-02-08T09:36:38;-11650.84;;;-142.29;47.06
7748;BME280;3918;42.564;23.164;2023-02-08T09:39:08;-11650.84;;;-142.29;48.07
7748;BME280;3918;42.564;23.164;2023-02-08T09:41:58;-11650.84;;;-142.29;50.23
7748;BME280;3918;42.564;23.164;2023-02-08T09:44:30;-11650.84;;;-142.29;47.88
7748;BME280;3918;42.564;23.164;2023-02-08T09:47:09;-11650.84;;;-142.29;45.38
7748;BME280;3918;42.564;23.164;2023-02-08T09:49:41;-11650.84;;;-142.29;43.76
7748;BME280;3918;42.564;23.164;2023-02-08T09:52:12;-11650.84;;;-142.29;43.05
7748;BME280;3918;42.564;23.164;2023-02-08T09:54:45;-11650.84;;;-142.29;43.67
7748;BME280;3918;42.564;23.164;2023-02-08T09:57:17;-11650.84;;;-142.29;42.64
7748;BME280;3918;42.564;23.164;2023-02-08T09:59:50;-11650.84;;;-142.29;44.64
7748;BME280;3918;42.564;23.164;2023-02-08T10:02:24;-11650.84;;;-142.29;44.61
7748;BME280;3918;42.564;23.164;2023-02-08T10:04:57;-11650.84;;;-142.29;47.28
7748;BME280;3918;42.564;23.164;2023-02-08T10:07:26;-11650.84;;;-142.29;47.25
7748;BME280;3918;42.564;23.164;2023-02-08T10:09:56;-11650.84;;;-142.29;46.37
7748;BME280;3918;42.564;23.164;2023-02-08T10:12:35;-11650.84;;;-142.29;45.74
7748;BME280;3918;42.564;23.164;2023-02-08T10:15:15;-11650.84;;;-142.29;49.15
7748;BME280;3918;42.564;23.164;2023-02-08T10:20:49;-11650.84;;;-142.29;65.13
7748;BME280;3918;42.564;23.164;2023-02-08T10:23:32;-11650.84;;;-142.29;77.12
7748;BME280;3918;42.564;23.164;2023-02-08T10:26:10;-11650.84;;;-142.29;81.57
7748;BME280;3918;42.564;23.164;2023-02-08T10:28:56;-11650.84;;;-142.29;86.08
7748;BME280;3918;42.564;23.164;2023-02-08T10:31:34;-11650.84;;;-142.29;87.05
7748;BME280;3918;42.564;23.164;2023-02-08T10:34:14;-11650.84;;;-142.29;85.49
7748;BME280;3918;42.564;23.164;2023-02-08T10:36:45;-11650.84;;;-142.29;81.73
7748;BME280;3918;42.564;23.164;2023-02-08T10:39:15;-11650.84;;;-142.29;78.19
7748;BME280;3918;42.564;23.164;2023-02-08T10:41:43;-11650.84;;;-142.29;72.32
7748;BME280;3918;42.564;23.164;2023-02-08T10:44:19;-11650.84;;;-142.29;70.51
7748;BME280;3918;42.564;23.164;2023-02-08T10:46:54;-11650.84;;;-142.29;60.23
7748;BME280;3918;42.564;23.164;2023-02-08T10:49:31;-11650.84;;;-142.29;56.06
7748;BME280;3918;42.564;23.164;2023-02-08T10:51:59;-11650.84;;;-142.29;58.81
7748;BME280;3918;42.564;23.164;2023-02-08T10:54:26;-11650.84;;;-142.29;56.21
7748;BME280;3918;42.564;23.164;2023-02-08T10:56:54;-11650.84;;;-142.29;57.57
7748;BME280;3918;42.564;23.164;2023-02-08T10:59:25;-11650.84;;;-142.29;57.76
7748;BME280;3918;42.564;23.164;2023-02-08T11:01:56;-11650.84;;;-142.29;50.49
7748;BME280;3918;42.564;23.164;2023-02-08T11:04:24;-11650.84;;;-142.29;50.34
7748;BME280;3918;42.564;23.164;2023-02-08T11:06:51;-11650.84;;;-142.29;48.37
7748;BME280;3918;42.564;23.164;2023-02-08T11:09:21;-11650.84;;;-142.29;47.24
7748;BME280;3918;42.564;23.164;2023-02-08T11:11:49;-11650.84;;;-142.29;48.93
7748;BME280;3918;42.564;23.164;2023-02-08T11:14:19;-11650.84;;;-142.29;47.01
7748;BME280;3918;42.564;23.164;2023-02-08T11:16:49;-11650.84;;;-142.29;46.27
7748;BME280;3918;42.564;23.164;2023-02-08T11:19:21;-11650.84;;;-142.29;44.46
7748;BME280;3918;42.564;23.164;2023-02-08T11:21:51;-11650.84;;;-142.29;44.57
7748;BME280;3918;42.564;23.164;2023-02-08T11:24:26;-11650.84;;;-142.29;48.96
7748;BME280;3918;42.564;23.164;2023-02-08T11:26:54;-11650.84;;;-142.29;51.38
7748;BME280;3918;42.564;23.164;2023-02-08T11:29:22;-11650.84;;;-142.29;52.24
7748;BME280;3918;42.564;23.164;2023-02-08T11:32:01;-11650.84;;;-142.29;52.21
7748;BME280;3918;42.564;23.164;2023-02-08T11:34:30;-11650.84;;;-142.29;51.57
7748;BME280;3918;42.564;23.164;2023-02-08T11:37:01;-11650.84;;;-142.29;49.48
7748;BME280;3918;42.564;23.164;2023-02-08T11:39:34;-11650.84;;;-142.29;48.52
7748;BME280;3918;42.564;23.164;2023-02-08T11:42:03;-11650.84;;;-142.29;47.44
7748;BME280;3918;42.564;23.164;2023-02-08T11:44:33;-11650.84;;;-142.29;45.27
7748;BME280;3918;42.564;23.164;2023-02-08T11:47:04;-11650.84;;;-142.29;44.47
7748;BME280;3918;42.564;23.164;2023-02-08T11:49:37;-11650.84;;;-142.29;43.79
7748;BME280;3918;42.564;23.164;2023-02-08T11:52:07;-11650.84;;;-142.29;44.37
7748;BME280;3918;42.564;23.164;2023-02-08T11:54:44;-11650.84;;;-142.29;45.18
7748;BME280;3918;42.564;23.164;2023-02-08T11:57:14;-11650.84;;;-142.29;43.91
7748;BME280;3918;42.564;23.164;2023-02-08T11:59:43;-11650.84;;;-142.29;43.54
7748;BME280;3918;42.564;23.164;2023-02-08T12:02:35;-11650.84;;;-142.29;44.24
7748;BME280;3918;42.564;23.164;2023-02-08T12:05:03;-11650.84;;;-142.29;42.94
7748;BME280;3918;42.564;23.164;2023-02-08T12:07:56;-11650.84;;;-142.29;44.90
7748;BME280;3918;42.564;23.164;2023-02-08T12:10:46;-11650.84;;;-142.29;46.29
7748;BME280;3918;42.564;23.164;2023-02-08T12:13:40;-11650.84;;;-142.29;51.54
7748;BME280;3918;42.564;23.164;2023-02-08T12:22:05;-11650.84;;;-142.29;53.55
7748;BME280;3918;42.564;23.164;2023-02-08T12:24:41;-11650.84;;;-142.29;58.05
7748;BME280;3918;42.564;23.164;2023-02-08T12:27:21;-11650.84;;;-142.29;53.38
7748;BME280;3918;42.564;23.164;2023-02-08T12:29:55;-11650.84;;;-142.29;51.67
7748;BME280;3918;42.564;23.164;2023-02-08T12:32:40;-11650.84;;;-142.29;50.39
7748;BME280;3918;42.564;23.164;2023-02-08T12:35:34;-11650.84;;;-142.29;49.63
7748;BME280;3918;42.564;23.164;2023-02-08T12:38:08;-11650.84;;;-142.29;50.01
7748;BME280;3918;42.564;23.164;2023-02-08T12:41:01;-11650.84;;;-142.29;49.53
7748;BME280;3918;42.564;23.164;2023-02-08T12:43:43;-11650.84;;;-142.29;48.55
7748;BME280;3918;42.564;23.164;2023-02-08T12:46:21;-11650.84;;;-142.29;47.22
7748;BME280;3918;42.564;23.164;2023-02-08T12:49:06;-11650.84;;;-142.29;46.48
7748;BME280;3918;42.564;23.164;2023-02-08T12:51:43;-11650.84;;;-142.29;47.06
7748;BME280;3918;42.564;23.164;2023-02-08T12:54:18;-11650.84;;;-142.29;45.97
7748;BME280;3918;42.564;23.164;2023-02-08T12:56:51;-11650.84;;;-142.29;48.53
7748;BME280;3918;42.564;23.164;2023-02-08T12:59:25;-11650.84;;;-142.29;48.92
7748;BME280;3918;42.564;23.164;2023-02-08T13:01:56;-11650.84;;;-142.29;47.60
7748;BME280;3918;42.564;23.164;2023-02-08T13:04:30;-11650.84;;;-142.29;53.10